Time;durP1;ratioP1;P1;durP2;ratioP2;P2;SDS_P1;SDS_P2;PMS_P1;PMS_P2;Temp;Humidity;BMP_temperature;BMP_pressure;BME280_temperature;BME280_humidity;BME280_pressure;Samples;Min_cycle;Max_cycle;Signal;HPM_P1;HPM_P2
2021/01/12 00:02:16;;;;;;;15.23;10.23;;;;;;;;;;5055032;28;20434;-70
2021/01/12 00:04:42;;;;;;;18.57;10.97;;;;;;;;;;5056788;28;20415;-70
2021/01/12 00:07:08;;;;;;;26.73;10.90;;;;;;;;;;5048037;28;20447;-70
2021/01/12 00:09:34;;;;;;;20.00;10.97;;;;;;;;;;5036558;28;20406;-70
2021/01/12 00:12:00;;;;;;;24.70;9.50;;;;;;;;;;5042532;28;20510;-71
2021/01/12 00:14:32;;;;;;;24.40;11.70;;;;;;;;;;5056637;28;20469;-70
2021/01/12 00:17:02;;;;;;;19.00;10.30;;;;;;;;;;5054140;28;20477;-70
2021/01/12 00:19:28;;;;;;;19.50;9.33;;;;;;;;;;5056339;28;20402;-70
2021/01/12 00:21:55;;;;;;;23.23;12.20;;;;;;;;;;5055106;28;20461;-69
2021/01/12 00:24:21;;;;;;;21.10;11.90;;;;;;;;;;5056593;28;20406;-70
2021/01/12 00:26:47;;;;;;;19.83;11.03;;;;;;;;;;5051102;28;20808;-70
2021/01/12 00:29:14;;;;;;;20.03;11.37;;;;;;;;;;5036309;28;20399;-70
2021/01/12 00:31:40;;;;;;;20.57;11.83;;;;;;;;;;5038516;28;20423;-70
2021/01/12 00:34:07;;;;;;;25.20;10.53;;;;;;;;;;5055686;28;20931;-70
2021/01/12 00:36:33;;;;;;;19.90;10.03;;;;;;;;;;5053058;28;20486;-69
2021/01/12 00:38:59;;;;;;;18.27;10.40;;;;;;;;;;5035827;28;20400;-70
2021/01/12 00:41:25;;;;;;;14.73;9.63;;;;;;;;;;5041947;28;20858;-68
2021/01/12 00:43:51;;;;;;;15.40;10.30;;;;;;;;;;5035884;28;20411;-70
2021/01/12 00:46:17;;;;;;;18.37;10.20;;;;;;;;;;5035666;28;20779;-70
2021/01/12 00:48:43;;;;;;;16.87;11.00;;;;;;;;;;5035636;28;20435;-70
2021/01/12 00:51:09;;;;;;;20.13;10.97;;;;;;;;;;5035481;28;20915;-70
2021/01/12 00:53:35;;;;;;;18.87;10.10;;;;;;;;;;5052639;28;20556;-70
2021/01/12 00:56:01;;;;;;;15.77;9.87;;;;;;;;;;5055308;28;20513;-70
2021/01/12 00:58:27;;;;;;;22.90;11.47;;;;;;;;;;5054390;28;20527;-70
2021/01/12 01:00:53;;;;;;;16.30;9.67;;;;;;;;;;5054321;28;20510;-70
2021/01/12 01:03:19;;;;;;;20.53;9.60;;;;;;;;;;5054559;28;20483;-70
2021/01/12 01:05:45;;;;;;;20.23;10.53;;;;;;;;;;5055482;28;20432;-70
2021/01/12 01:08:11;;;;;;;19.10;10.23;;;;;;;;;;5054342;28;20431;-70
2021/01/12 01:10:38;;;;;;;18.83;9.27;;;;;;;;;;5055168;28;20406;-70
2021/01/12 01:13:04;;;;;;;18.57;10.17;;;;;;;;;;5054142;28;20930;-70
2021/01/12 01:15:30;;;;;;;17.00;10.27;;;;;;;;;;5054948;28;20454;-70
2021/01/12 01:17:55;;;;;;;22.23;11.00;;;;;;;;;;5054177;28;20442;-70
2021/01/12 01:20:21;;;;;;;18.53;9.77;;;;;;;;;;5055240;28;20403;-70
2021/01/12 01:22:47;;;;;;;20.93;10.00;;;;;;;;;;5053076;28;20920;-70
2021/01/12 01:25:14;;;;;;;17.10;10.30;;;;;;;;;;5054850;28;20437;-70
2021/01/12 01:27:40;;;;;;;16.83;10.30;;;;;;;;;;5053807;28;20435;-70
2021/01/12 01:30:06;;;;;;;19.80;10.80;;;;;;;;;;5054771;28;20428;-70
2021/01/12 01:32:32;;;;;;;15.97;8.73;;;;;;;;;;5053670;28;20954;-70
2021/01/12 01:34:58;;;;;;;17.77;8.70;;;;;;;;;;5054613;28;20402;-69
2021/01/12 01:37:24;;;;;;;13.77;9.80;;;;;;;;;;5053590;28;20456;-70
2021/01/12 01:39:50;;;;;;;16.70;9.53;;;;;;;;;;5054743;28;20410;-70
2021/01/12 01:42:16;;;;;;;15.10;9.43;;;;;;;;;;5053631;28;20998;-70
2021/01/12 01:44:42;;;;;;;16.20;8.60;;;;;;;;;;5054840;28;20414;-70
2021/01/12 01:47:08;;;;;;;19.57;9.70;;;;;;;;;;5046382;28;20446;-70
2021/01/12 01:49:34;;;;;;;15.10;8.67;;;;;;;;;;5034819;28;20411;-70
2021/01/12 01:52:01;;;;;;;15.20;8.47;;;;;;;;;;5039346;28;20461;-71
2021/01/12 01:54:28;;;;;;;18.10;10.77;;;;;;;;;;5054408;28;20399;-70
2021/01/12 01:56:54;;;;;;;21.60;9.40;;;;;;;;;;5053328;28;20477;-70
2021/01/12 01:59:20;;;;;;;18.10;10.70;;;;;;;;;;5053050;28;20460;-71
2021/01/12 02:01:46;;;;;;;14.20;8.27;;;;;;;;;;5052558;28;20432;-70
2021/01/12 02:04:12;;;;;;;16.20;8.30;;;;;;;;;;5054459;28;20441;-70
2021/01/12 02:06:39;;;;;;;19.73;8.53;;;;;;;;;;5040984;28;20826;-70
2021/01/12 02:09:10;;;;;;;14.07;8.17;;;;;;;;;;5054418;28;20773;-71
2021/01/12 02:11:43;;;;;;;17.47;8.10;;;;;;;;;;5053489;28;20454;-70
2021/01/12 02:14:15;;;;;;;20.30;9.17;;;;;;;;;;5054162;28;20455;-71
2021/01/12 02:16:42;;;;;;;12.30;7.80;;;;;;;;;;5052660;28;20482;-70
2021/01/12 02:19:12;;;;;;;14.20;8.67;;;;;;;;;;5054120;28;20825;-71
2021/01/12 02:21:44;;;;;;;16.67;9.53;;;;;;;;;;5052071;28;20401;-70
2021/01/12 02:24:10;;;;;;;17.10;8.47;;;;;;;;;;5033916;28;20769;-71
2021/01/12 02:26:36;;;;;;;16.97;8.63;;;;;;;;;;5033939;28;20412;-70
2021/01/12 02:29:02;;;;;;;20.80;8.77;;;;;;;;;;5053832;28;20438;-70
2021/01/12 02:31:31;;;;;;;15.00;8.43;;;;;;;;;;5053804;28;20402;-71
2021/01/12 02:33:59;;;;;;;17.07;9.00;;;;;;;;;;5033870;28;20423;-70
2021/01/12 02:36:25;;;;;;;17.13;9.67;;;;;;;;;;5037266;28;20426;-70
2021/01/12 02:38:51;;;;;;;18.40;9.90;;;;;;;;;;5045130;28;20419;-70
2021/01/12 02:41:18;;;;;;;16.17;9.63;;;;;;;;;;5033687;28;20425;-71
2021/01/12 02:43:44;;;;;;;11.30;7.67;;;;;;;;;;5046039;28;20422;-70
2021/01/12 02:46:11;;;;;;;19.90;9.23;;;;;;;;;;5053711;28;20443;-71
2021/01/12 02:48:37;;;;;;;17.50;8.70;;;;;;;;;;5052213;28;20982;-71
2021/01/12 02:51:04;;;;;;;15.30;8.10;;;;;;;;;;5053412;28;20406;-71
2021/01/12 02:53:31;;;;;;;14.90;9.40;;;;;;;;;;5042059;28;20464;-70
2021/01/12 02:55:57;;;;;;;16.07;8.70;;;;;;;;;;5046663;28;20791;-70
2021/01/12 02:58:22;;;;;;;14.23;7.70;;;;;;;;;;5042532;28;20486;-71
2021/01/12 03:00:49;;;;;;;13.97;8.40;;;;;;;;;;5046326;28;20473;-70
2021/01/12 03:03:15;;;;;;;17.60;8.53;;;;;;;;;;5039030;28;20438;-70
2021/01/12 03:05:41;;;;;;;17.73;8.17;;;;;;;;;;5033311;28;20428;-70
2021/01/12 03:08:07;;;;;;;17.60;8.23;;;;;;;;;;5039250;28;20520;-70
2021/01/12 03:10:33;;;;;;;15.57;8.17;;;;;;;;;;5041625;28;20780;-71
2021/01/12 03:12:59;;;;;;;14.87;7.73;;;;;;;;;;5038671;28;20449;-70
2021/01/12 03:15:25;;;;;;;19.63;8.40;;;;;;;;;;5052981;28;20449;-71
2021/01/12 03:17:52;;;;;;;17.00;9.70;;;;;;;;;;5052338;28;20433;-70
2021/01/12 03:20:18;;;;;;;16.50;9.00;;;;;;;;;;5053060;28;20405;-71
2021/01/12 03:22:44;;;;;;;17.93;9.00;;;;;;;;;;5052065;28;20604;-71
2021/01/12 03:25:10;;;;;;;17.43;9.10;;;;;;;;;;5052913;28;20527;-70
2021/01/12 03:27:36;;;;;;;15.10;9.30;;;;;;;;;;5051308;28;20438;-70
2021/01/12 03:30:03;;;;;;;16.63;9.13;;;;;;;;;;5052891;28;20403;-71
2021/01/12 03:32:29;;;;;;;16.33;9.20;;;;;;;;;;5051820;28;20441;-70
2021/01/12 03:34:55;;;;;;;16.90;9.90;;;;;;;;;;5052840;28;20395;-71
2021/01/12 03:37:21;;;;;;;14.60;8.80;;;;;;;;;;5053148;28;20396;-71
2021/01/12 03:39:47;;;;;;;16.83;7.80;;;;;;;;;;5052424;28;20427;-71
2021/01/12 03:42:13;;;;;;;15.60;8.70;;;;;;;;;;5052856;28;20406;-71
2021/01/12 03:44:39;;;;;;;12.63;8.60;;;;;;;;;;5051958;28;20460;-71
2021/01/12 03:47:05;;;;;;;16.13;8.40;;;;;;;;;;5051439;28;20850;-71
2021/01/12 03:49:31;;;;;;;16.83;8.20;;;;;;;;;;5051737;28;20453;-70
2021/01/12 03:51:57;;;;;;;17.83;9.97;;;;;;;;;;5052923;28;20446;-70
2021/01/12 03:54:23;;;;;;;13.80;8.60;;;;;;;;;;5051665;28;20434;-70
2021/01/12 03:56:49;;;;;;;17.20;8.67;;;;;;;;;;5052809;28;20468;-70
2021/01/12 03:59:15;;;;;;;16.77;10.10;;;;;;;;;;5051759;28;20832;-70
2021/01/12 04:01:44;;;;;;;16.07;8.53;;;;;;;;;;5052631;28;20401;-71
2021/01/12 04:04:10;;;;;;;17.13;9.50;;;;;;;;;;5051660;28;20430;-70
2021/01/12 04:06:36;;;;;;;17.30;8.63;;;;;;;;;;5051613;28;20517;-70
2021/01/12 04:09:03;;;;;;;18.80;9.30;;;;;;;;;;5063436;28;20426;-70
2021/01/12 04:11:30;;;;;;;22.87;9.90;;;;;;;;;;5075644;28;20401;-71
2021/01/12 04:13:56;;;;;;;19.13;9.33;;;;;;;;;;5074674;28;20461;-70
2021/01/12 04:16:25;;;;;;;16.47;9.43;;;;;;;;;;5076096;28;20441;-70
2021/01/12 04:18:51;;;;;;;19.97;9.00;;;;;;;;;;5074375;28;20433;-70
2021/01/12 04:21:17;;;;;;;16.67;9.40;;;;;;;;;;5076652;28;20799;-70
2021/01/12 04:23:43;;;;;;;15.30;8.30;;;;;;;;;;5057554;28;20431;-70
2021/01/12 04:26:09;;;;;;;15.77;9.47;;;;;;;;;;5036240;28;20463;-70
2021/01/12 04:28:35;;;;;;;12.00;7.93;;;;;;;;;;5050378;28;20436;-70
2021/01/12 04:31:01;;;;;;;22.00;9.13;;;;;;;;;;5076295;28;20406;-70
2021/01/12 04:33:27;;;;;;;20.00;9.70;;;;;;;;;;5073931;28;20960;-70
2021/01/12 04:35:53;;;;;;;13.77;6.70;;;;;;;;;;5076368;28;20428;-70
2021/01/12 04:38:19;;;;;;;14.60;7.30;;;;;;;;;;5074244;28;20421;-70
2021/01/12 04:40:46;;;;;;;18.30;9.97;;;;;;;;;;5073731;28;20422;-70
2021/01/12 04:43:12;;;;;;;17.20;8.43;;;;;;;;;;5074219;28;20824;-70
2021/01/12 04:45:39;;;;;;;16.30;8.30;;;;;;;;;;5075789;28;20515;-70
2021/01/12 04:48:05;;;;;;;16.43;7.67;;;;;;;;;;5074090;28;20458;-69
2021/01/12 04:50:31;;;;;;;16.33;8.77;;;;;;;;;;5075715;28;20884;-70
2021/01/12 04:52:57;;;;;;;15.17;8.17;;;;;;;;;;5062786;28;20458;-70
2021/01/12 04:55:23;;;;;;;15.23;8.30;;;;;;;;;;5075755;28;20781;-70
2021/01/12 04:57:50;;;;;;;17.03;8.80;;;;;;;;;;5074436;28;20478;-69
2021/01/12 05:00:23;;;;;;;17.03;9.00;;;;;;;;;;5074998;28;20401;-70
2021/01/12 05:03:01;;;;;;;15.50;9.17;;;;;;;;;;5074951;28;20435;-69
2021/01/12 05:05:28;;;;;;;15.37;8.20;;;;;;;;;;5035474;28;20778;-70
2021/01/12 05:07:54;;;;;;;15.37;8.87;;;;;;;;;;5035352;28;20427;-69
2021/01/12 05:10:20;;;;;;;13.13;8.17;;;;;;;;;;5074561;28;20808;-70
2021/01/12 05:12:46;;;;;;;15.13;8.67;;;;;;;;;;5075240;28;20540;-70
2021/01/12 05:15:13;;;;;;;21.97;10.87;;;;;;;;;;5062838;22;20489;-79
2021/01/12 05:17:40;;;;;;;12.33;7.40;;;;;;;;;;5060553;28;21011;-81
2021/01/12 05:20:10;;;;;;;15.30;8.37;;;;;;;;;;5058753;28;20907;-81
2021/01/12 05:22:40;;;;;;;20.73;9.30;;;;;;;;;;5056920;28;20819;-81
2021/01/12 05:25:20;;;;;;;14.03;10.13;;;;;;;;;;5040284;28;20443;-81
2021/01/12 05:27:51;;;;;;;16.73;8.70;;;;;;;;;;5037429;28;20427;-82
2021/01/12 05:30:23;;;;;;;13.33;7.37;;;;;;;;;;5038474;28;20416;-82
2021/01/12 05:32:51;;;;;;;21.47;9.10;;;;;;;;;;5037775;28;20474;-81
2021/01/12 05:35:17;;;;;;;12.20;8.00;;;;;;;;;;5037505;28;20424;-81
2021/01/12 05:37:43;;;;;;;22.87;9.83;;;;;;;;;;5037060;28;20518;-81
2021/01/12 05:40:10;;;;;;;17.10;8.73;;;;;;;;;;5048899;28;20460;-81
2021/01/12 05:42:38;;;;;;;15.50;8.40;;;;;;;;;;5056237;28;20411;-81
2021/01/12 05:45:05;;;;;;;17.57;8.30;;;;;;;;;;5055627;28;20505;-81
2021/01/12 05:47:31;;;;;;;14.37;8.40;;;;;;;;;;5056094;28;20499;-82
2021/01/12 05:49:59;;;;;;;22.53;9.07;;;;;;;;;;5045682;28;20427;-81
2021/01/12 05:52:26;;;;;;;15.70;8.10;;;;;;;;;;5035098;28;20458;-81
2021/01/12 05:55:12;;;;;;;14.47;9.10;;;;;;;;;;5054398;28;20430;-81
2021/01/12 05:57:39;;;;;;;14.17;8.43;;;;;;;;;;5074356;28;20455;-81
2021/01/12 06:00:06;;;;;;;14.30;8.50;;;;;;;;;;5063297;28;20418;-81
2021/01/12 06:02:32;;;;;;;16.90;8.87;;;;;;;;;;5055691;28;20403;-82
2021/01/12 06:04:59;;;;;;;17.30;8.17;;;;;;;;;;5057060;28;20428;-81
2021/01/12 06:07:25;;;;;;;15.77;7.93;;;;;;;;;;5055545;28;20428;-80
2021/01/12 06:09:52;;;;;;;10.83;6.90;;;;;;;;;;5062654;28;20434;-82
2021/01/12 06:12:19;;;;;;;10.23;6.67;;;;;;;;;;5054941;28;20448;-81
2021/01/12 06:14:49;;;;;;;20.63;9.07;;;;;;;;;;5061496;28;20425;-80
2021/01/12 06:17:16;;;;;;;12.53;7.13;;;;;;;;;;5056547;28;20450;-80
2021/01/12 06:19:44;;;;;;;11.80;7.03;;;;;;;;;;5062852;28;20433;-81
2021/01/12 06:22:14;;;;;;;16.80;6.47;;;;;;;;;;5067670;28;20471;-81
2021/01/12 06:24:43;;;;;;;11.00;7.63;;;;;;;;;;5057814;28;20437;-81
2021/01/12 06:27:16;;;;;;;10.27;6.80;;;;;;;;;;5055961;28;20476;-81
2021/01/12 06:29:45;;;;;;;11.13;6.53;;;;;;;;;;5052344;28;20483;-81
2021/01/12 06:32:15;;;;;;;11.47;6.70;;;;;;;;;;5057500;28;20449;-81
2021/01/12 06:34:41;;;;;;;15.80;6.97;;;;;;;;;;5063173;28;20431;-81
2021/01/12 06:37:09;;;;;;;8.60;4.10;;;;;;;;;;5056918;28;20441;-81
2021/01/12 06:39:39;;;;;;;7.40;4.40;;;;;;;;;;5054759;28;20422;-80
2021/01/12 06:42:05;;;;;;;10.50;5.30;;;;;;;;;;5056035;28;20423;-80
2021/01/12 06:44:33;;;;;;;9.30;4.10;;;;;;;;;;5054552;28;20433;-80
2021/01/12 06:46:59;;;;;;;7.67;4.80;;;;;;;;;;5055242;28;20491;-80
2021/01/12 06:49:27;;;;;;;11.40;5.37;;;;;;;;;;5054720;28;20442;-80
2021/01/12 06:51:55;;;;;;;5.77;4.63;;;;;;;;;;5055380;28;20418;-81
2021/01/12 06:54:21;;;;;;;11.60;5.30;;;;;;;;;;5056955;28;20466;-81
2021/01/12 06:56:57;;;;;;;7.10;4.73;;;;;;;;;;5075556;28;20422;-80
2021/01/12 06:59:31;;;;;;;7.33;4.30;;;;;;;;;;5074539;28;20810;-81
2021/01/12 07:01:58;;;;;;;7.10;5.60;;;;;;;;;;5074564;28;20405;-80
2021/01/12 07:04:27;;;;;;;9.10;5.83;;;;;;;;;;5071690;28;20526;-80
2021/01/12 07:06:56;;;;;;;11.30;6.23;;;;;;;;;;5055875;28;20903;-80
2021/01/12 07:09:23;;;;;;;9.00;4.77;;;;;;;;;;5057385;28;20438;-80
2021/01/12 07:11:49;;;;;;;7.87;4.97;;;;;;;;;;5076914;28;20409;-80
2021/01/12 07:14:24;;;;;;;7.07;4.60;;;;;;;;;;5073960;28;20897;-81
2021/01/12 07:16:50;;;;;;;9.13;4.83;;;;;;;;;;5075259;28;20433;-81
2021/01/12 07:19:22;;;;;;;7.33;3.60;;;;;;;;;;5064278;28;20596;-82
2021/01/12 07:21:48;;;;;;;9.33;4.93;;;;;;;;;;5075952;28;20935;-80
2021/01/12 07:24:17;;;;;;;6.47;3.97;;;;;;;;;;5074506;28;20404;-83
2021/01/12 07:26:44;;;;;;;8.43;4.07;;;;;;;;;;5056056;28;20439;-80
2021/01/12 07:29:11;;;;;;;6.60;4.00;;;;;;;;;;5057212;28;20405;-82
2021/01/12 07:31:37;;;;;;;7.80;3.57;;;;;;;;;;5074779;28;20437;-80
2021/01/12 07:34:03;;;;;;;7.43;3.90;;;;;;;;;;5074291;28;20490;-80
2021/01/12 07:36:33;;;;;;;6.67;4.10;;;;;;;;;;5074577;28;20431;-80
2021/01/12 07:39:01;;;;;;;6.27;3.40;;;;;;;;;;5062401;28;20786;-80
2021/01/12 07:41:27;;;;;;;4.93;2.90;;;;;;;;;;5071303;28;20421;-80
2021/01/12 07:43:56;;;;;;;4.00;2.80;;;;;;;;;;5075879;28;20483;-81
2021/01/12 07:46:25;;;;;;;6.60;3.40;;;;;;;;;;5076573;28;20433;-81
2021/01/12 07:48:51;;;;;;;6.77;3.20;;;;;;;;;;5060649;28;20434;-80
2021/01/12 07:51:17;;;;;;;3.37;2.17;;;;;;;;;;5058350;28;20434;-80
2021/01/12 07:53:43;;;;;;;4.67;3.63;;;;;;;;;;5059210;28;20965;-80
2021/01/12 07:56:09;;;;;;;5.90;3.60;;;;;;;;;;5058992;28;20471;-80
2021/01/12 07:58:36;;;;;;;5.40;3.30;;;;;;;;;;5058955;28;20418;-79
2021/01/12 08:01:02;;;;;;;4.20;2.60;;;;;;;;;;5043045;28;20435;-80
2021/01/12 08:03:28;;;;;;;4.30;2.60;;;;;;;;;;5039179;28;20405;-80
2021/01/12 08:05:57;;;;;;;5.20;2.80;;;;;;;;;;5054649;28;20425;-81
2021/01/12 08:08:25;;;;;;;4.77;3.10;;;;;;;;;;5058891;28;20575;-80
2021/01/12 08:10:51;;;;;;;5.33;3.00;;;;;;;;;;5058432;28;20448;-80
2021/01/12 08:13:17;;;;;;;5.20;4.10;;;;;;;;;;5057715;28;20987;-80
2021/01/12 08:15:44;;;;;;;4.30;2.70;;;;;;;;;;5053151;28;20458;-80
2021/01/12 08:18:20;;;;;;;5.23;2.80;;;;;;;;;;5059292;28;20620;-81
2021/01/12 08:20:46;;;;;;;3.80;2.93;;;;;;;;;;5054986;28;20426;-80
2021/01/12 08:23:13;;;;;;;6.90;3.17;;;;;;;;;;5057471;28;20470;-81
2021/01/12 08:25:39;;;;;;;5.97;3.00;;;;;;;;;;5056847;28;20502;-80
2021/01/12 08:28:08;;;;;;;3.03;2.20;;;;;;;;;;5058053;28;20430;-80
2021/01/12 08:30:35;;;;;;;5.50;2.87;;;;;;;;;;5056888;28;20430;-80
2021/01/12 08:33:01;;;;;;;3.40;2.00;;;;;;;;;;5057823;28;20458;-80
2021/01/12 08:35:29;;;;;;;3.00;2.20;;;;;;;;;;5050590;28;21568;-81
2021/01/12 08:37:57;;;;;;;3.87;2.70;;;;;;;;;;5057799;28;20431;-81
2021/01/12 08:40:23;;;;;;;4.50;2.63;;;;;;;;;;5055774;28;20427;-80
2021/01/12 08:42:50;;;;;;;4.00;2.00;;;;;;;;;;5058366;28;20409;-80
2021/01/12 08:45:17;;;;;;;6.23;2.40;;;;;;;;;;5048511;28;20786;-80
2021/01/12 08:47:45;;;;;;;3.80;2.00;;;;;;;;;;5051169;28;20450;-81
2021/01/12 08:50:11;;;;;;;4.73;2.70;;;;;;;;;;5054846;28;20482;-81
2021/01/12 08:52:38;;;;;;;3.97;1.80;;;;;;;;;;5042133;28;20846;-80
2021/01/12 08:55:25;;;;;;;6.20;2.40;;;;;;;;;;5047791;28;20505;-80
2021/01/12 08:57:57;;;;;;;2.90;1.67;;;;;;;;;;5057770;28;20918;-80
2021/01/12 09:00:33;;;;;;;3.07;1.80;;;;;;;;;;5048511;28;20438;-81
2021/01/12 09:02:59;;;;;;;3.73;1.93;;;;;;;;;;5038359;28;20435;-80
2021/01/12 09:05:25;;;;;;;5.13;1.70;;;;;;;;;;5042495;28;21002;-79
2021/01/12 09:08:03;;;;;;;2.10;1.90;;;;;;;;;;5072234;22;20532;-74
2021/01/12 09:10:30;;;;;;;2.90;1.80;;;;;;;;;;5060405;28;20426;-75
2021/01/12 09:12:56;;;;;;;4.60;2.13;;;;;;;;;;5066199;28;20500;-75
2021/01/12 09:15:26;;;;;;;2.33;1.40;;;;;;;;;;5076392;28;20545;-76
2021/01/12 09:18:08;;;;;;;4.20;2.33;;;;;;;;;;5076458;28;20411;-75
2021/01/12 09:20:35;;;;;;;2.67;1.60;;;;;;;;;;5067613;28;20826;-76
2021/01/12 09:23:05;;;;;;;3.57;1.73;;;;;;;;;;5062530;22;20492;-78
2021/01/12 09:25:32;;;;;;;2.13;1.30;;;;;;;;;;5043800;28;20445;-79
2021/01/12 09:28:10;;;;;;;2.60;1.60;;;;;;;;;;5062086;28;20431;-80
2021/01/12 09:30:40;;;;;;;3.53;1.40;;;;;;;;;;5058693;28;20502;-80
2021/01/12 09:33:06;;;;;;;2.50;1.70;;;;;;;;;;5057862;28;20484;-80
2021/01/12 09:35:34;;;;;;;2.60;1.83;;;;;;;;;;5057572;28;20491;-79
2021/01/12 09:38:01;;;;;;;2.87;1.70;;;;;;;;;;5040004;28;20427;-79
2021/01/12 09:40:28;;;;;;;2.37;1.90;;;;;;;;;;5057816;28;20436;-79
2021/01/12 09:42:54;;;;;;;3.67;2.03;;;;;;;;;;5059895;28;20412;-81
2021/01/12 09:45:20;;;;;;;4.20;2.13;;;;;;;;;;5057945;28;20414;-81
2021/01/12 09:47:46;;;;;;;2.30;1.63;;;;;;;;;;5040454;28;20428;-81
2021/01/12 09:50:13;;;;;;;1.90;1.20;;;;;;;;;;5057846;28;20460;-81
2021/01/12 09:52:39;;;;;;;3.47;1.80;;;;;;;;;;5058818;28;20450;-81
2021/01/12 09:55:05;;;;;;;2.63;1.30;;;;;;;;;;5063325;28;20554;-81
2021/01/12 09:57:34;;;;;;;2.40;1.33;;;;;;;;;;5062325;28;20461;-81
2021/01/12 10:00:00;;;;;;;3.20;2.00;;;;;;;;;;5064710;28;20407;-82
2021/01/12 10:02:26;;;;;;;3.93;1.43;;;;;;;;;;5064718;28;20423;-81
2021/01/12 10:04:52;;;;;;;2.23;1.33;;;;;;;;;;5065874;28;20977;-82
2021/01/12 10:07:18;;;;;;;2.43;1.30;;;;;;;;;;5059823;28;20426;-80
2021/01/12 10:09:47;;;;;;;2.17;1.50;;;;;;;;;;5054224;28;20429;-81
2021/01/12 10:12:13;;;;;;;3.70;1.60;;;;;;;;;;5062245;28;20469;-79
2021/01/12 10:14:39;;;;;;;1.93;1.70;;;;;;;;;;5050460;28;20515;-79
2021/01/12 10:17:05;;;;;;;2.47;1.40;;;;;;;;;;5047499;28;20424;-79
2021/01/12 10:19:31;;;;;;;3.37;1.97;;;;;;;;;;5046265;28;20413;-82
2021/01/12 10:21:57;;;;;;;2.00;1.67;;;;;;;;;;5058091;28;20447;-83
2021/01/12 10:24:23;;;;;;;2.40;2.07;;;;;;;;;;5045687;28;20422;-81
2021/01/12 10:26:56;;;;;;;3.20;1.63;;;;;;;;;;5061526;28;20418;-80
2021/01/12 10:29:26;;;;;;;2.27;1.40;;;;;;;;;;5061743;28;20468;-80
2021/01/12 10:31:52;;;;;;;1.90;1.30;;;;;;;;;;5058621;28;20967;-80
2021/01/12 10:34:20;;;;;;;2.07;1.40;;;;;;;;;;5061353;28;20430;-82
2021/01/12 10:36:49;;;;;;;5.73;2.23;;;;;;;;;;5038592;28;20416;-81
2021/01/12 10:39:15;;;;;;;5.73;1.60;;;;;;;;;;5052092;28;20444;-83
2021/01/12 10:41:41;;;;;;;2.30;1.40;;;;;;;;;;5052599;28;20408;-82
2021/01/12 10:44:07;;;;;;;1.73;1.43;;;;;;;;;;5049110;28;20431;-83
2021/01/12 10:46:34;;;;;;;2.20;1.50;;;;;;;;;;5047687;28;20437;-82
2021/01/12 10:49:00;;;;;;;2.53;1.50;;;;;;;;;;5030885;28;20436;-83
2021/01/12 10:51:26;;;;;;;3.70;1.60;;;;;;;;;;5053425;28;20435;-81
2021/01/12 10:53:52;;;;;;;2.90;1.80;;;;;;;;;;5044652;28;20928;-82
2021/01/12 10:56:18;;;;;;;3.50;1.93;;;;;;;;;;5045294;28;20425;-81
2021/01/12 10:58:44;;;;;;;2.60;1.40;;;;;;;;;;5047444;28;20478;-82
2021/01/12 11:01:16;;;;;;;2.33;1.50;;;;;;;;;;5050520;28;20461;-80
2021/01/12 11:03:46;;;;;;;1.87;1.20;;;;;;;;;;5040093;28;20472;-81
2021/01/12 11:06:12;;;;;;;2.37;1.70;;;;;;;;;;5053104;28;20428;-81
2021/01/12 11:08:38;;;;;;;1.90;1.60;;;;;;;;;;5053676;28;20469;-81
2021/01/12 11:11:05;;;;;;;2.70;1.40;;;;;;;;;;5054824;28;20416;-81
2021/01/12 11:13:31;;;;;;;2.43;1.37;;;;;;;;;;5051631;28;20954;-81
2021/01/12 11:16:06;;;;;;;3.50;1.73;;;;;;;;;;5053324;28;20517;-81
2021/01/12 11:18:32;;;;;;;2.60;2.40;;;;;;;;;;5033748;28;20441;-81
2021/01/12 11:21:02;;;;;;;2.13;1.67;;;;;;;;;;5032895;28;21279;-83
2021/01/12 11:23:28;;;;;;;2.20;1.70;;;;;;;;;;5031384;28;20423;-81
2021/01/12 11:25:54;;;;;;;3.90;1.30;;;;;;;;;;5035165;28;20887;-80
2021/01/12 11:31:17;;;;;;;2.00;1.47;;;;;;;;;;5049916;28;20517;-82
2021/01/12 11:33:43;;;;;;;2.40;1.40;;;;;;;;;;5044619;28;20555;-82
2021/01/12 11:36:10;;;;;;;2.00;1.53;;;;;;;;;;5062825;28;20423;-81
2021/01/12 11:38:36;;;;;;;1.63;1.37;;;;;;;;;;5062509;28;20442;-82
2021/01/12 11:41:16;;;;;;;3.07;1.60;;;;;;;;;;5060733;28;20569;-77
2021/01/12 11:43:42;;;;;;;2.37;1.47;;;;;;;;;;5049859;28;20400;-77
2021/01/12 11:46:08;;;;;;;2.63;1.40;;;;;;;;;;5043542;28;20467;-78
2021/01/12 11:48:34;;;;;;;1.90;1.70;;;;;;;;;;5050213;28;20407;-78
2021/01/12 11:51:02;;;;;;;1.73;1.33;;;;;;;;;;5046426;28;20417;-78
2021/01/12 11:53:28;;;;;;;2.03;1.50;;;;;;;;;;5045195;28;20471;-78
2021/01/12 11:55:55;;;;;;;2.07;1.33;;;;;;;;;;5049000;28;20429;-76
2021/01/12 11:58:21;;;;;;;2.10;1.30;;;;;;;;;;5050309;28;20404;-77
2021/01/12 12:00:47;;;;;;;1.90;1.20;;;;;;;;;;5049921;28;20563;-77
2021/01/12 12:03:13;;;;;;;2.90;1.50;;;;;;;;;;5048727;28;20433;-79
2021/01/12 12:05:39;;;;;;;1.97;1.30;;;;;;;;;;5050679;28;20459;-77
2021/01/12 12:08:05;;;;;;;1.70;1.03;;;;;;;;;;5039914;28;20467;-77
2021/01/12 12:10:31;;;;;;;1.73;1.30;;;;;;;;;;5049205;28;20529;-77
2021/01/12 12:12:58;;;;;;;3.17;1.50;;;;;;;;;;5049545;28;20421;-77
2021/01/12 12:15:24;;;;;;;2.30;1.30;;;;;;;;;;5048698;28;20440;-77
2021/01/12 12:17:50;;;;;;;2.33;1.43;;;;;;;;;;5049468;28;20413;-76
2021/01/12 12:20:16;;;;;;;2.50;1.50;;;;;;;;;;5049330;28;20465;-77
2021/01/12 12:22:42;;;;;;;1.57;1.20;;;;;;;;;;5029827;28;20417;-77
2021/01/12 12:25:10;;;;;;;1.50;1.10;;;;;;;;;;5029877;28;20458;-77
2021/01/12 12:27:36;;;;;;;2.90;1.40;;;;;;;;;;5047743;28;20433;-77
2021/01/12 12:30:03;;;;;;;2.00;1.40;;;;;;;;;;5049433;28;20433;-77
2021/01/12 12:32:30;;;;;;;5.03;1.50;;;;;;;;;;5048849;28;20431;-77
2021/01/12 12:34:55;;;;;;;1.93;1.47;;;;;;;;;;5047643;28;20455;-77
2021/01/12 12:37:21;;;;;;;3.00;1.37;;;;;;;;;;5048434;28;20469;-77
2021/01/12 12:39:47;;;;;;;3.40;1.30;;;;;;;;;;5050075;28;20461;-77
2021/01/12 12:42:14;;;;;;;2.00;1.27;;;;;;;;;;5036986;28;20532;-77
2021/01/12 12:44:40;;;;;;;2.17;1.40;;;;;;;;;;5048227;28;20513;-76
2021/01/12 12:47:06;;;;;;;2.13;1.60;;;;;;;;;;5048131;28;20432;-76
2021/01/12 12:49:32;;;;;;;1.53;1.27;;;;;;;;;;5048611;28;20413;-77
2021/01/12 12:51:58;;;;;;;2.50;1.43;;;;;;;;;;5037741;28;20433;-77
2021/01/12 12:54:26;;;;;;;2.40;1.40;;;;;;;;;;5034184;28;20485;-77
2021/01/12 12:56:53;;;;;;;2.03;1.30;;;;;;;;;;5023392;28;20439;-76
2021/01/12 12:59:20;;;;;;;4.03;1.67;;;;;;;;;;5025599;28;20459;-76
2021/01/12 13:01:49;;;;;;;2.73;1.57;;;;;;;;;;5030972;28;20916;-77
2021/01/12 13:04:16;;;;;;;2.10;1.40;;;;;;;;;;5031290;28;20759;-77
2021/01/12 13:06:42;;;;;;;3.23;1.40;;;;;;;;;;5032835;28;20518;-76
2021/01/12 13:09:08;;;;;;;1.70;1.30;;;;;;;;;;5032841;28;20935;-77
2021/01/12 13:11:37;;;;;;;3.00;1.33;;;;;;;;;;5033176;28;20437;-76
2021/01/12 13:14:04;;;;;;;2.30;1.50;;;;;;;;;;5033335;28;20405;-76
2021/01/12 13:16:32;;;;;;;2.77;1.50;;;;;;;;;;5032669;28;20819;-77
2021/01/12 13:18:58;;;;;;;2.37;1.47;;;;;;;;;;5025813;28;20939;-77
2021/01/12 13:21:25;;;;;;;2.47;1.50;;;;;;;;;;5019571;28;20425;-77
2021/01/12 13:23:51;;;;;;;2.73;1.40;;;;;;;;;;5025794;28;20419;-77
2021/01/12 13:26:18;;;;;;;1.77;1.20;;;;;;;;;;5025993;28;20996;-76
2021/01/12 13:28:44;;;;;;;1.83;1.20;;;;;;;;;;5031745;28;20436;-76
2021/01/12 13:31:10;;;;;;;1.97;1.40;;;;;;;;;;5031818;28;20520;-76
2021/01/12 13:33:36;;;;;;;2.07;1.37;;;;;;;;;;5030703;28;20848;-76
2021/01/12 13:36:02;;;;;;;2.53;1.33;;;;;;;;;;5033540;28;20428;-78
2021/01/12 13:38:28;;;;;;;2.57;1.40;;;;;;;;;;5032385;28;20422;-76
2021/01/12 13:40:54;;;;;;;1.80;1.20;;;;;;;;;;5034185;28;20470;-76
2021/01/12 13:43:20;;;;;;;1.87;1.13;;;;;;;;;;5032850;28;20836;-75
2021/01/12 13:45:46;;;;;;;1.50;0.97;;;;;;;;;;5033295;28;20426;-77
2021/01/12 13:48:13;;;;;;;2.70;1.60;;;;;;;;;;5033689;28;20974;-77
2021/01/12 13:50:39;;;;;;;1.40;0.97;;;;;;;;;;5022224;28;20805;-76
2021/01/12 13:53:06;;;;;;;2.13;1.20;;;;;;;;;;5033794;28;20444;-76
2021/01/12 13:55:32;;;;;;;1.63;1.27;;;;;;;;;;5039610;28;20960;-75
2021/01/12 13:57:59;;;;;;;1.33;1.10;;;;;;;;;;5035063;28;20436;-76
2021/01/12 14:00:26;;;;;;;3.10;1.00;;;;;;;;;;5030280;28;20504;-76
2021/01/12 14:02:53;;;;;;;1.60;1.00;;;;;;;;;;5030103;28;20433;-76
2021/01/12 14:05:20;;;;;;;1.70;1.10;;;;;;;;;;5032430;28;20918;-76
2021/01/12 14:07:46;;;;;;;1.60;1.17;;;;;;;;;;5031637;28;20432;-76
2021/01/12 14:10:12;;;;;;;1.30;0.90;;;;;;;;;;5032583;28;20449;-76
2021/01/12 14:12:40;;;;;;;2.23;1.33;;;;;;;;;;5029825;28;20440;-76
2021/01/12 14:15:06;;;;;;;3.43;1.70;;;;;;;;;;5030892;28;20443;-76
2021/01/12 14:17:34;;;;;;;1.93;1.33;;;;;;;;;;5032379;28;20435;-76
2021/01/12 14:20:00;;;;;;;1.40;1.00;;;;;;;;;;5034204;28;20548;-76
2021/01/12 14:22:27;;;;;;;1.60;1.07;;;;;;;;;;5031493;28;20907;-76
2021/01/12 14:24:54;;;;;;;1.67;1.10;;;;;;;;;;5033775;28;20516;-77
2021/01/12 14:27:20;;;;;;;2.03;1.30;;;;;;;;;;5032933;28;20442;-77
2021/01/12 14:29:47;;;;;;;1.30;0.97;;;;;;;;;;5034248;28;20793;-76
2021/01/12 14:32:13;;;;;;;2.50;1.30;;;;;;;;;;5028594;28;20491;-76
2021/01/12 14:34:40;;;;;;;2.73;1.57;;;;;;;;;;5024572;28;20423;-76
2021/01/12 14:37:13;;;;;;;1.77;1.13;;;;;;;;;;5022309;28;20438;-76
2021/01/12 14:40:02;;;;;;;1.50;1.10;;;;;;;;;;5013276;28;20887;-76